Terminal Aerodrome Forecast
Issued by NWS Melbourne, FL

Home | Current Version | Previous Version | Text Only | Print | Product List | Glossary On
Versions: 1 2 3 4 5 6 7 8 9 10 11 12 13 14 15 16 17 18 19 20 21 22 23
000
FTUS42 KMLB 032340
TAFDAB
TAF
KDAB 032340Z 0400/0424 11006KT P6SM FEW025
     FM040200 00000KT P6SM FEW020
     FM040500 00000KT 3SM BR BKN003 OVC006
      TEMPO 0409/0412 1SM BR BKN003
     FM041400 18010KT P6SM SCT010 SCT020=

USA.gov is the U.S. government's official web portal to all federal, state and local government web resources and services.